sensor_id;sensor_type;location;lat;lon;timestamp;P1;durP1;ratioP1;P2;durP2;ratioP2
27804;SDS011;15183;51.350;11.102;2023-05-10T00:00:17;5.43;;;3.65;;
27804;SDS011;15183;51.350;11.102;2023-05-10T00:02:44;5.97;;;3.40;;
27804;SDS011;15183;51.350;11.102;2023-05-10T00:05:10;4.68;;;3.55;;
27804;SDS011;15183;51.350;11.102;2023-05-10T00:07:36;7.15;;;4.10;;
27804;SDS011;15183;51.350;11.102;2023-05-10T00:10:03;5.15;;;3.63;;
27804;SDS011;15183;51.350;11.102;2023-05-10T00:12:30;5.03;;;3.88;;
27804;SDS011;15183;51.350;11.102;2023-05-10T00:14:56;4.38;;;3.45;;
27804;SDS011;15183;51.350;11.102;2023-05-10T00:17:22;3.88;;;3.03;;
27804;SDS011;15183;51.350;11.102;2023-05-10T00:19:49;9.88;;;4.80;;
27804;SDS011;15183;51.350;11.102;2023-05-10T00:22:15;4.45;;;3.72;;
27804;SDS011;15183;51.350;11.102;2023-05-10T00:24:42;5.10;;;3.88;;
27804;SDS011;15183;51.350;11.102;2023-05-10T00:27:08;4.50;;;3.55;;
27804;SDS011;15183;51.350;11.102;2023-05-10T00:29:34;4.45;;;3.85;;
27804;SDS011;15183;51.350;11.102;2023-05-10T00:32:01;5.53;;;3.58;;
27804;SDS011;15183;51.350;11.102;2023-05-10T00:34:27;6.15;;;3.55;;
27804;SDS011;15183;51.350;11.102;2023-05-10T00:36:54;5.50;;;3.90;;
27804;SDS011;15183;51.350;11.102;2023-05-10T00:39:20;3.83;;;3.42;;
27804;SDS011;15183;51.350;11.102;2023-05-10T00:41:46;4.80;;;4.05;;
27804;SDS011;15183;51.350;11.102;2023-05-10T00:44:13;4.10;;;3.70;;
27804;SDS011;15183;51.350;11.102;2023-05-10T00:46:39;4.10;;;3.53;;
27804;SDS011;15183;51.350;11.102;2023-05-10T00:49:06;5.80;;;3.10;;
27804;SDS011;15183;51.350;11.102;2023-05-10T00:51:33;3.42;;;3.10;;
27804;SDS011;15183;51.350;11.102;2023-05-10T00:53:59;8.27;;;3.90;;
27804;SDS011;15183;51.350;11.102;2023-05-10T00:56:26;6.90;;;3.58;;
27804;SDS011;15183;51.350;11.102;2023-05-10T00:58:55;7.00;;;3.50;;
27804;SDS011;15183;51.350;11.102;2023-05-10T01:01:22;5.07;;;4.15;;
27804;SDS011;15183;51.350;11.102;2023-05-10T01:03:48;4.40;;;3.83;;
27804;SDS011;15183;51.350;11.102;2023-05-10T01:06:15;5.95;;;4.03;;
27804;SDS011;15183;51.350;11.102;2023-05-10T01:08:41;4.15;;;3.70;;
27804;SDS011;15183;51.350;11.102;2023-05-10T01:11:08;4.00;;;3.55;;
27804;SDS011;15183;51.350;11.102;2023-05-10T01:13:38;5.07;;;3.50;;
27804;SDS011;15183;51.350;11.102;2023-05-10T01:16:08;5.50;;;3.88;;
27804;SDS011;15183;51.350;11.102;2023-05-10T01:18:35;3.97;;;3.58;;
27804;SDS011;15183;51.350;11.102;2023-05-10T01:21:11;5.82;;;3.72;;
27804;SDS011;15183;51.350;11.102;2023-05-10T01:23:56;5.28;;;3.55;;
27804;SDS011;15183;51.350;11.102;2023-05-10T01:35:51;5.90;;;3.90;;
27804;SDS011;15183;51.350;11.102;2023-05-10T01:38:44;5.93;;;3.78;;
27804;SDS011;15183;51.350;11.102;2023-05-10T01:41:28;9.48;;;4.22;;
27804;SDS011;15183;51.350;11.102;2023-05-10T01:47:50;6.40;;;3.08;;
27804;SDS011;15183;51.350;11.102;2023-05-10T01:50:40;5.68;;;4.30;;
27804;SDS011;15183;51.350;11.102;2023-05-10T01:53:11;4.63;;;4.10;;
27804;SDS011;15183;51.350;11.102;2023-05-10T01:55:42;5.50;;;3.78;;
27804;SDS011;15183;51.350;11.102;2023-05-10T01:58:22;3.83;;;3.20;;
27804;SDS011;15183;51.350;11.102;2023-05-10T02:00:56;4.95;;;3.45;;
27804;SDS011;15183;51.350;11.102;2023-05-10T02:03:27;5.75;;;4.88;;
27804;SDS011;15183;51.350;11.102;2023-05-10T02:05:56;8.68;;;4.05;;
27804;SDS011;15183;51.350;11.102;2023-05-10T02:08:24;4.88;;;4.18;;
27804;SDS011;15183;51.350;11.102;2023-05-10T02:10:52;4.07;;;3.67;;
27804;SDS011;15183;51.350;11.102;2023-05-10T02:13:21;6.82;;;4.50;;
27804;SDS011;15183;51.350;11.102;2023-05-10T02:15:51;4.38;;;3.97;;
27804;SDS011;15183;51.350;11.102;2023-05-10T02:18:20;6.75;;;4.45;;
27804;SDS011;15183;51.350;11.102;2023-05-10T02:20:49;5.53;;;4.40;;
27804;SDS011;15183;51.350;11.102;2023-05-10T02:23:18;6.13;;;4.80;;
27804;SDS011;15183;51.350;11.102;2023-05-10T02:25:45;4.43;;;3.83;;
27804;SDS011;15183;51.350;11.102;2023-05-10T02:28:15;5.05;;;3.60;;
27804;SDS011;15183;51.350;11.102;2023-05-10T02:30:42;3.65;;;3.17;;
27804;SDS011;15183;51.350;11.102;2023-05-10T02:33:09;4.80;;;2.83;;
27804;SDS011;15183;51.350;11.102;2023-05-10T02:35:36;4.45;;;3.75;;
27804;SDS011;15183;51.350;11.102;2023-05-10T02:38:04;6.55;;;3.88;;
27804;SDS011;15183;51.350;11.102;2023-05-10T02:40:33;4.63;;;3.28;;
27804;SDS011;15183;51.350;11.102;2023-05-10T02:43:01;7.82;;;3.35;;
27804;SDS011;15183;51.350;11.102;2023-05-10T02:45:29;4.53;;;3.40;;
27804;SDS011;15183;51.350;11.102;2023-05-10T02:47:58;7.03;;;4.72;;
27804;SDS011;15183;51.350;11.102;2023-05-10T02:50:25;5.38;;;4.57;;
27804;SDS011;15183;51.350;11.102;2023-05-10T02:53:03;4.40;;;4.00;;
27804;SDS011;15183;51.350;11.102;2023-05-10T02:55:37;5.47;;;4.07;;
27804;SDS011;15183;51.350;11.102;2023-05-10T02:58:07;4.10;;;3.53;;
27804;SDS011;15183;51.350;11.102;2023-05-10T03:00:33;5.68;;;4.80;;
27804;SDS011;15183;51.350;11.102;2023-05-10T03:03:01;5.75;;;3.80;;
27804;SDS011;15183;51.350;11.102;2023-05-10T03:05:28;8.45;;;3.10;;
27804;SDS011;15183;51.350;11.102;2023-05-10T03:07:54;4.28;;;2.97;;
27804;SDS011;15183;51.350;11.102;2023-05-10T03:10:22;4.85;;;3.03;;
27804;SDS011;15183;51.350;11.102;2023-05-10T03:13:10;4.30;;;3.70;;
27804;SDS011;15183;51.350;11.102;2023-05-10T03:18:50;4.82;;;3.53;;
27804;SDS011;15183;51.350;11.102;2023-05-10T03:21:32;6.13;;;3.70;;
27804;SDS011;15183;51.350;11.102;2023-05-10T03:24:05;5.07;;;3.95;;
27804;SDS011;15183;51.350;11.102;2023-05-10T03:26:34;5.35;;;3.55;;
27804;SDS011;15183;51.350;11.102;2023-05-10T03:29:02;5.65;;;4.55;;
27804;SDS011;15183;51.350;11.102;2023-05-10T03:31:31;4.40;;;3.50;;
27804;SDS011;15183;51.350;11.102;2023-05-10T03:33:58;6.95;;;4.32;;
27804;SDS011;15183;51.350;11.102;2023-05-10T03:36:24;6.25;;;3.35;;
27804;SDS011;15183;51.350;11.102;2023-05-10T03:38:51;6.63;;;4.10;;
27804;SDS011;15183;51.350;11.102;2023-05-10T03:41:17;5.78;;;4.10;;
27804;SDS011;15183;51.350;11.102;2023-05-10T03:43:44;4.28;;;3.40;;
27804;SDS011;15183;51.350;11.102;2023-05-10T03:46:10;4.82;;;3.85;;
27804;SDS011;15183;51.350;11.102;2023-05-10T03:48:36;6.10;;;4.07;;
27804;SDS011;15183;51.350;11.102;2023-05-10T03:51:03;5.72;;;3.60;;
27804;SDS011;15183;51.350;11.102;2023-05-10T03:53:29;5.30;;;3.88;;
27804;SDS011;15183;51.350;11.102;2023-05-10T03:55:56;4.70;;;3.63;;
27804;SDS011;15183;51.350;11.102;2023-05-10T03:58:22;4.55;;;3.60;;
27804;SDS011;15183;51.350;11.102;2023-05-10T04:00:48;6.38;;;3.80;;
27804;SDS011;15183;51.350;11.102;2023-05-10T04:03:16;7.03;;;4.20;;
27804;SDS011;15183;51.350;11.102;2023-05-10T04:05:43;4.15;;;3.58;;
27804;SDS011;15183;51.350;11.102;2023-05-10T04:08:09;9.18;;;3.85;;
27804;SDS011;15183;51.350;11.102;2023-05-10T04:10:36;3.85;;;3.13;;
27804;SDS011;15183;51.350;11.102;2023-05-10T04:13:02;5.50;;;3.70;;
27804;SDS011;15183;51.350;11.102;2023-05-10T04:15:28;4.97;;;3.92;;
27804;SDS011;15183;51.350;11.102;2023-05-10T04:17:55;4.47;;;3.47;;
27804;SDS011;15183;51.350;11.102;2023-05-10T04:20:21;3.42;;;3.13;;
27804;SDS011;15183;51.350;11.102;2023-05-10T04:22:48;5.13;;;3.42;;
27804;SDS011;15183;51.350;11.102;2023-05-10T04:25:14;5.28;;;4.28;;
27804;SDS011;15183;51.350;11.102;2023-05-10T04:27:41;6.53;;;3.83;;
27804;SDS011;15183;51.350;11.102;2023-05-10T04:30:07;7.50;;;4.43;;
27804;SDS011;15183;51.350;11.102;2023-05-10T04:32:34;6.00;;;3.85;;
27804;SDS011;15183;51.350;11.102;2023-05-10T04:35:01;4.70;;;4.07;;
27804;SDS011;15183;51.350;11.102;2023-05-10T04:37:30;4.68;;;4.05;;
27804;SDS011;15183;51.350;11.102;2023-05-10T04:39:56;5.70;;;4.55;;
27804;SDS011;15183;51.350;11.102;2023-05-10T04:42:23;17.48;;;8.38;;
27804;SDS011;15183;51.350;11.102;2023-05-10T04:44:49;18.30;;;10.32;;
27804;SDS011;15183;51.350;11.102;2023-05-10T04:47:15;13.35;;;8.52;;
27804;SDS011;15183;51.350;11.102;2023-05-10T04:49:42;8.77;;;6.50;;
27804;SDS011;15183;51.350;11.102;2023-05-10T04:52:08;8.18;;;5.45;;
27804;SDS011;15183;51.350;11.102;2023-05-10T04:54:35;5.93;;;4.47;;
27804;SDS011;15183;51.350;11.102;2023-05-10T04:57:01;6.32;;;4.88;;
27804;SDS011;15183;51.350;11.102;2023-05-10T04:59:27;8.20;;;4.28;;
27804;SDS011;15183;51.350;11.102;2023-05-10T05:01:54;4.20;;;3.25;;
27804;SDS011;15183;51.350;11.102;2023-05-10T05:04:20;5.20;;;3.63;;
27804;SDS011;15183;51.350;11.102;2023-05-10T05:06:48;4.82;;;3.45;;
27804;SDS011;15183;51.350;11.102;2023-05-10T05:09:15;6.95;;;3.03;;
27804;SDS011;15183;51.350;11.102;2023-05-10T05:11:41;2.83;;;2.55;;
27804;SDS011;15183;51.350;11.102;2023-05-10T05:14:08;4.05;;;3.22;;
27804;SDS011;15183;51.350;11.102;2023-05-10T05:16:34;6.97;;;4.38;;
27804;SDS011;15183;51.350;11.102;2023-05-10T05:19:01;5.45;;;3.90;;
27804;SDS011;15183;51.350;11.102;2023-05-10T05:21:27;4.35;;;3.40;;
27804;SDS011;15183;51.350;11.102;2023-05-10T05:23:54;4.95;;;4.13;;
27804;SDS011;15183;51.350;11.102;2023-05-10T05:26:20;5.63;;;3.70;;
27804;SDS011;15183;51.350;11.102;2023-05-10T05:28:47;5.25;;;4.30;;
27804;SDS011;15183;51.350;11.102;2023-05-10T05:31:14;5.57;;;4.43;;
27804;SDS011;15183;51.350;11.102;2023-05-10T05:33:40;4.80;;;3.47;;
27804;SDS011;15183;51.350;11.102;2023-05-10T05:36:07;24.58;;;16.30;;
27804;SDS011;15183;51.350;11.102;2023-05-10T05:38:33;16.02;;;11.75;;
27804;SDS011;15183;51.350;11.102;2023-05-10T05:41:00;11.23;;;7.75;;
27804;SDS011;15183;51.350;11.102;2023-05-10T05:43:26;9.98;;;5.25;;
27804;SDS011;15183;51.350;11.102;2023-05-10T05:45:52;9.20;;;7.03;;
27804;SDS011;15183;51.350;11.102;2023-05-10T05:48:19;8.35;;;6.32;;
27804;SDS011;15183;51.350;11.102;2023-05-10T05:50:46;11.00;;;6.75;;
27804;SDS011;15183;51.350;11.102;2023-05-10T05:53:12;6.63;;;4.70;;
27804;SDS011;15183;51.350;11.102;2023-05-10T05:55:39;6.13;;;4.30;;
27804;SDS011;15183;51.350;11.102;2023-05-10T05:58:05;7.13;;;4.97;;
27804;SDS011;15183;51.350;11.102;2023-05-10T06:00:32;9.63;;;6.88;;
27804;SDS011;15183;51.350;11.102;2023-05-10T06:02:58;8.10;;;5.47;;
27804;SDS011;15183;51.350;11.102;2023-05-10T06:05:24;8.13;;;5.97;;
27804;SDS011;15183;51.350;11.102;2023-05-10T06:07:51;6.05;;;5.07;;
27804;SDS011;15183;51.350;11.102;2023-05-10T06:10:17;5.15;;;4.07;;
27804;SDS011;15183;51.350;11.102;2023-05-10T06:12:44;4.32;;;3.00;;
27804;SDS011;15183;51.350;11.102;2023-05-10T06:15:10;7.88;;;5.32;;
27804;SDS011;15183;51.350;11.102;2023-05-10T06:17:37;11.38;;;7.22;;
27804;SDS011;15183;51.350;11.102;2023-05-10T06:20:04;11.85;;;8.85;;
27804;SDS011;15183;51.350;11.102;2023-05-10T06:22:32;10.43;;;7.70;;
27804;SDS011;15183;51.350;11.102;2023-05-10T06:24:58;14.93;;;7.00;;
27804;SDS011;15183;51.350;11.102;2023-05-10T06:27:24;12.27;;;8.35;;
27804;SDS011;15183;51.350;11.102;2023-05-10T06:29:51;8.43;;;6.25;;
27804;SDS011;15183;51.350;11.102;2023-05-10T06:32:17;6.15;;;5.13;;
27804;SDS011;15183;51.350;11.102;2023-05-10T06:34:44;8.35;;;5.90;;
27804;SDS011;15183;51.350;11.102;2023-05-10T06:37:10;12.32;;;8.30;;
27804;SDS011;15183;51.350;11.102;2023-05-10T06:39:37;8.05;;;5.60;;
27804;SDS011;15183;51.350;11.102;2023-05-10T06:42:03;12.18;;;5.63;;
27804;SDS011;15183;51.350;11.102;2023-05-10T06:44:30;5.70;;;4.10;;
27804;SDS011;15183;51.350;11.102;2023-05-10T06:46:56;6.85;;;4.85;;
27804;SDS011;15183;51.350;11.102;2023-05-10T06:49:23;9.10;;;6.30;;
27804;SDS011;15183;51.350;11.102;2023-05-10T06:51:49;9.23;;;6.10;;
27804;SDS011;15183;51.350;11.102;2023-05-10T06:54:15;10.02;;;7.32;;
27804;SDS011;15183;51.350;11.102;2023-05-10T06:56:42;10.95;;;7.57;;
27804;SDS011;15183;51.350;11.102;2023-05-10T06:59:08;10.90;;;8.05;;
27804;SDS011;15183;51.350;11.102;2023-05-10T07:01:35;7.05;;;5.20;;
27804;SDS011;15183;51.350;11.102;2023-05-10T07:04:01;5.75;;;4.60;;
27804;SDS011;15183;51.350;11.102;2023-05-10T07:06:27;6.18;;;5.00;;
27804;SDS011;15183;51.350;11.102;2023-05-10T07:08:54;8.48;;;6.68;;
27804;SDS011;15183;51.350;11.102;2023-05-10T07:11:21;5.72;;;5.00;;
27804;SDS011;15183;51.350;11.102;2023-05-10T07:13:47;11.48;;;7.55;;
27804;SDS011;15183;51.350;11.102;2023-05-10T07:16:13;10.10;;;7.50;;
27804;SDS011;15183;51.350;11.102;2023-05-10T07:18:40;7.85;;;5.85;;
27804;SDS011;15183;51.350;11.102;2023-05-10T07:21:06;9.18;;;7.20;;
27804;SDS011;15183;51.350;11.102;2023-05-10T07:23:33;9.65;;;6.85;;
27804;SDS011;15183;51.350;11.102;2023-05-10T07:25:59;12.15;;;9.25;;
27804;SDS011;15183;51.350;11.102;2023-05-10T07:28:27;16.73;;;11.52;;
27804;SDS011;15183;51.350;11.102;2023-05-10T07:30:54;15.57;;;11.40;;
27804;SDS011;15183;51.350;11.102;2023-05-10T07:33:20;10.55;;;7.45;;
27804;SDS011;15183;51.350;11.102;2023-05-10T07:35:47;14.93;;;11.10;;
27804;SDS011;15183;51.350;11.102;2023-05-10T07:38:13;12.95;;;10.02;;
27804;SDS011;15183;51.350;11.102;2023-05-10T07:40:39;16.90;;;12.68;;
27804;SDS011;15183;51.350;11.102;2023-05-10T07:43:06;11.57;;;8.20;;
27804;SDS011;15183;51.350;11.102;2023-05-10T07:45:33;11.77;;;8.77;;
27804;SDS011;15183;51.350;11.102;2023-05-10T07:47:59;11.95;;;9.82;;
27804;SDS011;15183;51.350;11.102;2023-05-10T07:50:26;9.73;;;7.70;;
27804;SDS011;15183;51.350;11.102;2023-05-10T07:52:52;8.80;;;7.07;;
27804;SDS011;15183;51.350;11.102;2023-05-10T07:55:19;10.45;;;8.38;;
27804;SDS011;15183;51.350;11.102;2023-05-10T07:57:46;13.73;;;10.02;;
27804;SDS011;15183;51.350;11.102;2023-05-10T08:00:13;8.35;;;7.07;;
27804;SDS011;15183;51.350;11.102;2023-05-10T08:02:44;8.18;;;6.18;;
27804;SDS011;15183;51.350;11.102;2023-05-10T08:05:10;19.50;;;15.48;;
27804;SDS011;15183;51.350;11.102;2023-05-10T08:07:37;17.48;;;13.77;;
27804;SDS011;15183;51.350;11.102;2023-05-10T08:10:04;17.10;;;11.35;;
27804;SDS011;15183;51.350;11.102;2023-05-10T08:12:31;18.30;;;11.45;;
27804;SDS011;15183;51.350;11.102;2023-05-10T08:14:57;13.32;;;10.63;;
27804;SDS011;15183;51.350;11.102;2023-05-10T08:17:24;28.75;;;20.05;;
27804;SDS011;15183;51.350;11.102;2023-05-10T08:19:50;27.00;;;19.05;;
27804;SDS011;15183;51.350;11.102;2023-05-10T08:22:17;48.40;;;31.70;;
27804;SDS011;15183;51.350;11.102;2023-05-10T08:24:43;26.10;;;18.98;;
27804;SDS011;15183;51.350;11.102;2023-05-10T08:27:09;21.02;;;15.48;;
27804;SDS011;15183;51.350;11.102;2023-05-10T08:29:36;30.17;;;20.05;;
27804;SDS011;15183;51.350;11.102;2023-05-10T08:32:03;34.78;;;24.75;;
27804;SDS011;15183;51.350;11.102;2023-05-10T08:34:30;27.33;;;20.50;;
27804;SDS011;15183;51.350;11.102;2023-05-10T08:36:56;26.73;;;19.98;;
27804;SDS011;15183;51.350;11.102;2023-05-10T08:39:23;20.20;;;15.52;;
27804;SDS011;15183;51.350;11.102;2023-05-10T08:41:50;22.90;;;16.00;;
27804;SDS011;15183;51.350;11.102;2023-05-10T08:44:19;18.80;;;13.73;;
27804;SDS011;15183;51.350;11.102;2023-05-10T08:46:46;32.30;;;23.63;;
27804;SDS011;15183;51.350;11.102;2023-05-10T08:49:18;20.85;;;15.60;;
27804;SDS011;15183;51.350;11.102;2023-05-10T08:51:54;19.42;;;15.07;;
27804;SDS011;15183;51.350;11.102;2023-05-10T08:54:22;15.93;;;11.55;;
27804;SDS011;15183;51.350;11.102;2023-05-10T08:56:49;23.25;;;17.33;;
27804;SDS011;15183;51.350;11.102;2023-05-10T08:59:16;16.38;;;12.75;;
27804;SDS011;15183;51.350;11.102;2023-05-10T09:01:43;16.60;;;12.65;;
27804;SDS011;15183;51.350;11.102;2023-05-10T09:04:13;22.67;;;15.90;;
27804;SDS011;15183;51.350;11.102;2023-05-10T09:06:40;10.68;;;8.23;;
27804;SDS011;15183;51.350;11.102;2023-05-10T09:09:07;9.32;;;7.20;;
27804;SDS011;15183;51.350;11.102;2023-05-10T09:11:33;14.02;;;11.02;;
27804;SDS011;15183;51.350;11.102;2023-05-10T09:14:00;22.52;;;14.95;;
27804;SDS011;15183;51.350;11.102;2023-05-10T09:16:28;24.02;;;17.55;;
27804;SDS011;15183;51.350;11.102;2023-05-10T09:18:54;15.85;;;11.88;;
27804;SDS011;15183;51.350;11.102;2023-05-10T09:21:21;17.42;;;12.98;;
27804;SDS011;15183;51.350;11.102;2023-05-10T09:23:48;17.52;;;13.57;;
27804;SDS011;15183;51.350;11.102;2023-05-10T09:26:15;19.27;;;14.13;;
27804;SDS011;15183;51.350;11.102;2023-05-10T09:28:50;15.02;;;11.23;;
27804;SDS011;15183;51.350;11.102;2023-05-10T09:31:22;14.75;;;9.35;;
27804;SDS011;15183;51.350;11.102;2023-05-10T09:33:52;12.52;;;9.60;;
27804;SDS011;15183;51.350;11.102;2023-05-10T09:36:19;12.82;;;9.80;;
27804;SDS011;15183;51.350;11.102;2023-05-10T09:38:46;16.00;;;12.23;;
27804;SDS011;15183;51.350;11.102;2023-05-10T09:41:20;10.32;;;7.93;;
27804;SDS011;15183;51.350;11.102;2023-05-10T09:43:48;12.50;;;9.57;;
27804;SDS011;15183;51.350;11.102;2023-05-10T09:46:15;12.38;;;10.15;;
27804;SDS011;15183;51.350;11.102;2023-05-10T09:48:43;13.10;;;10.30;;
27804;SDS011;15183;51.350;11.102;2023-05-10T09:51:22;13.25;;;9.88;;
27804;SDS011;15183;51.350;11.102;2023-05-10T09:54:08;9.15;;;7.45;;
27804;SDS011;15183;51.350;11.102;2023-05-10T09:56:39;13.32;;;9.55;;
27804;SDS011;15183;51.350;11.102;2023-05-10T09:59:06;7.20;;;5.07;;
27804;SDS011;15183;51.350;11.102;2023-05-10T10:01:37;5.55;;;2.67;;
27804;SDS011;15183;51.350;11.102;2023-05-10T10:04:04;1.42;;;1.33;;
27804;SDS011;15183;51.350;11.102;2023-05-10T10:06:36;4.60;;;3.80;;
27804;SDS011;15183;51.350;11.102;2023-05-10T10:09:07;10.77;;;7.03;;
27804;SDS011;15183;51.350;11.102;2023-05-10T10:11:37;12.40;;;8.13;;
27804;SDS011;15183;51.350;11.102;2023-05-10T10:14:04;16.17;;;11.05;;
27804;SDS011;15183;51.350;11.102;2023-05-10T10:16:31;17.00;;;11.25;;
27804;SDS011;15183;51.350;11.102;2023-05-10T10:18:58;15.45;;;9.75;;
27804;SDS011;15183;51.350;11.102;2023-05-10T10:21:24;16.60;;;11.40;;
27804;SDS011;15183;51.350;11.102;2023-05-10T10:23:51;14.80;;;10.63;;
27804;SDS011;15183;51.350;11.102;2023-05-10T10:26:18;20.23;;;12.73;;
27804;SDS011;15183;51.350;11.102;2023-05-10T10:28:49;11.15;;;7.32;;
27804;SDS011;15183;51.350;11.102;2023-05-10T10:31:40;11.57;;;8.15;;
27804;SDS011;15183;51.350;11.102;2023-05-10T10:34:27;8.38;;;6.38;;
27804;SDS011;15183;51.350;11.102;2023-05-10T10:36:56;13.43;;;8.18;;
27804;SDS011;15183;51.350;11.102;2023-05-10T10:39:23;9.57;;;7.28;;
27804;SDS011;15183;51.350;11.102;2023-05-10T10:41:54;6.38;;;5.03;;
27804;SDS011;15183;51.350;11.102;2023-05-10T10:49:49;7.50;;;4.43;;
27804;SDS011;15183;51.350;11.102;2023-05-10T10:52:28;12.30;;;6.70;;
27804;SDS011;15183;51.350;11.102;2023-05-10T10:54:59;6.22;;;4.15;;
27804;SDS011;15183;51.350;11.102;2023-05-10T10:57:31;3.05;;;2.40;;
27804;SDS011;15183;51.350;11.102;2023-05-10T11:00:21;6.07;;;5.10;;
27804;SDS011;15183;51.350;11.102;2023-05-10T11:02:55;3.50;;;2.72;;
27804;SDS011;15183;51.350;11.102;2023-05-10T11:08:00;2.50;;;2.30;;
27804;SDS011;15183;51.350;11.102;2023-05-10T11:10:36;7.75;;;5.53;;
27804;SDS011;15183;51.350;11.102;2023-05-10T11:13:06;6.10;;;4.78;;
27804;SDS011;15183;51.350;11.102;2023-05-10T11:15:37;2.85;;;2.55;;
27804;SDS011;15183;51.350;11.102;2023-05-10T11:18:23;3.60;;;3.13;;
27804;SDS011;15183;51.350;11.102;2023-05-10T11:20:58;3.83;;;2.78;;
27804;SDS011;15183;51.350;11.102;2023-05-10T11:26:16;2.90;;;2.47;;
27804;SDS011;15183;51.350;11.102;2023-05-10T11:28:44;2.42;;;1.85;;
27804;SDS011;15183;51.350;11.102;2023-05-10T11:31:15;3.20;;;2.38;;
27804;SDS011;15183;51.350;11.102;2023-05-10T11:33:43;2.25;;;1.63;;
27804;SDS011;15183;51.350;11.102;2023-05-10T11:36:15;2.03;;;1.83;;
27804;SDS011;15183;51.350;11.102;2023-05-10T11:38:46;5.00;;;3.13;;
27804;SDS011;15183;51.350;11.102;2023-05-10T11:41:14;2.55;;;2.15;;
27804;SDS011;15183;51.350;11.102;2023-05-10T11:43:43;2.75;;;1.48;;
27804;SDS011;15183;51.350;11.102;2023-05-10T11:46:14;1.88;;;1.77;;
27804;SDS011;15183;51.350;11.102;2023-05-10T11:48:46;1.08;;;0.80;;
27804;SDS011;15183;51.350;11.102;2023-05-10T11:51:19;1.92;;;1.52;;
27804;SDS011;15183;51.350;11.102;2023-05-10T11:53:48;4.15;;;2.88;;
27804;SDS011;15183;51.350;11.102;2023-05-10T11:56:18;4.25;;;3.28;;
27804;SDS011;15183;51.350;11.102;2023-05-10T11:58:44;3.25;;;2.92;;
27804;SDS011;15183;51.350;11.102;2023-05-10T12:01:12;3.80;;;1.60;;
27804;SDS011;15183;51.350;11.102;2023-05-10T12:03:39;3.28;;;2.53;;
27804;SDS011;15183;51.350;11.102;2023-05-10T12:06:06;2.72;;;2.53;;
27804;SDS011;15183;51.350;11.102;2023-05-10T12:08:33;5.15;;;2.55;;
27804;SDS011;15183;51.350;11.102;2023-05-10T12:11:06;2.05;;;1.85;;
27804;SDS011;15183;51.350;11.102;2023-05-10T12:13:38;2.00;;;1.73;;
27804;SDS011;15183;51.350;11.102;2023-05-10T12:16:15;2.15;;;1.80;;
27804;SDS011;15183;51.350;11.102;2023-05-10T12:18:50;1.50;;;1.35;;
27804;SDS011;15183;51.350;11.102;2023-05-10T12:21:21;2.10;;;1.73;;
27804;SDS011;15183;51.350;11.102;2023-05-10T12:23:49;2.42;;;1.88;;
27804;SDS011;15183;51.350;11.102;2023-05-10T12:26:21;2.83;;;1.30;;
27804;SDS011;15183;51.350;11.102;2023-05-10T12:28:48;1.52;;;1.42;;
27804;SDS011;15183;51.350;11.102;2023-05-10T12:31:15;1.50;;;1.33;;
27804;SDS011;15183;51.350;11.102;2023-05-10T12:33:42;2.65;;;2.40;;
27804;SDS011;15183;51.350;11.102;2023-05-10T12:36:10;1.70;;;1.60;;
27804;SDS011;15183;51.350;11.102;2023-05-10T12:38:39;1.40;;;1.30;;
27804;SDS011;15183;51.350;11.102;2023-05-10T12:41:14;2.30;;;1.65;;
27804;SDS011;15183;51.350;11.102;2023-05-10T12:43:43;1.70;;;1.60;;
27804;SDS011;15183;51.350;11.102;2023-05-10T12:46:11;2.35;;;1.58;;
27804;SDS011;15183;51.350;11.102;2023-05-10T12:48:40;1.35;;;1.00;;
27804;SDS011;15183;51.350;11.102;2023-05-10T12:51:08;2.83;;;1.25;;
27804;SDS011;15183;51.350;11.102;2023-05-10T12:53:37;1.55;;;1.30;;
27804;SDS011;15183;51.350;11.102;2023-05-10T12:56:05;1.42;;;1.33;;
27804;SDS011;15183;51.350;11.102;2023-05-10T12:58:31;1.40;;;1.27;;
27804;SDS011;15183;51.350;11.102;2023-05-10T13:00:58;1.40;;;1.30;;
27804;SDS011;15183;51.350;11.102;2023-05-10T13:03:25;1.40;;;1.30;;
27804;SDS011;15183;51.350;11.102;2023-05-10T13:05:52;1.10;;;1.00;;
27804;SDS011;15183;51.350;11.102;2023-05-10T13:08:18;1.52;;;1.08;;
27804;SDS011;15183;51.350;11.102;2023-05-10T13:10:44;1.67;;;1.00;;
27804;SDS011;15183;51.350;11.102;2023-05-10T13:13:11;0.95;;;0.95;;
27804;SDS011;15183;51.350;11.102;2023-05-10T13:15:37;1.52;;;1.00;;
27804;SDS011;15183;51.350;11.102;2023-05-10T13:18:04;2.13;;;0.85;;
27804;SDS011;15183;51.350;11.102;2023-05-10T13:20:30;1.15;;;0.90;;
27804;SDS011;15183;51.350;11.102;2023-05-10T13:22:56;1.10;;;0.98;;
27804;SDS011;15183;51.350;11.102;2023-05-10T13:25:23;1.38;;;0.88;;
27804;SDS011;15183;51.350;11.102;2023-05-10T13:27:49;1.80;;;1.25;;
27804;SDS011;15183;51.350;11.102;2023-05-10T13:30:16;4.05;;;1.23;;
27804;SDS011;15183;51.350;11.102;2023-05-10T13:32:42;0.77;;;0.70;;
27804;SDS011;15183;51.350;11.102;2023-05-10T13:35:08;2.33;;;1.70;;
27804;SDS011;15183;51.350;11.102;2023-05-10T13:37:35;1.15;;;1.02;;
27804;SDS011;15183;51.350;11.102;2023-05-10T13:40:03;0.70;;;0.68;;
27804;SDS011;15183;51.350;11.102;2023-05-10T13:42:30;1.50;;;0.90;;
27804;SDS011;15183;51.350;11.102;2023-05-10T13:44:59;0.70;;;0.70;;
27804;SDS011;15183;51.350;11.102;2023-05-10T13:47:27;1.08;;;0.60;;
27804;SDS011;15183;51.350;11.102;2023-05-10T13:49:54;0.82;;;0.82;;
27804;SDS011;15183;51.350;11.102;2023-05-10T13:52:20;1.38;;;0.70;;
27804;SDS011;15183;51.350;11.102;2023-05-10T13:54:47;0.73;;;0.73;;
27804;SDS011;15183;51.350;11.102;2023-05-10T13:57:13;0.73;;;0.60;;
27804;SDS011;15183;51.350;11.102;2023-05-10T13:59:42;0.50;;;0.50;;
27804;SDS011;15183;51.350;11.102;2023-05-10T14:02:08;0.50;;;0.50;;
27804;SDS011;15183;51.350;11.102;2023-05-10T14:04:34;1.10;;;0.60;;
27804;SDS011;15183;51.350;11.102;2023-05-10T14:07:01;0.65;;;0.65;;
27804;SDS011;15183;51.350;11.102;2023-05-10T14:09:27;0.88;;;0.50;;
27804;SDS011;15183;51.350;11.102;2023-05-10T14:11:54;0.85;;;0.60;;
27804;SDS011;15183;51.350;11.102;2023-05-10T14:14:21;1.95;;;0.70;;
27804;SDS011;15183;51.350;11.102;2023-05-10T14:16:47;0.77;;;0.77;;
27804;SDS011;15183;51.350;11.102;2023-05-10T14:19:14;0.80;;;0.60;;
27804;SDS011;15183;51.350;11.102;2023-05-10T14:21:40;1.52;;;0.93;;
27804;SDS011;15183;51.350;11.102;2023-05-10T14:24:07;1.00;;;0.90;;
27804;SDS011;15183;51.350;11.102;2023-05-10T14:26:33;0.70;;;0.70;;
27804;SDS011;15183;51.350;11.102;2023-05-10T14:29:00;2.13;;;0.80;;
27804;SDS011;15183;51.350;11.102;2023-05-10T14:31:26;1.13;;;0.60;;
27804;SDS011;15183;51.350;11.102;2023-05-10T14:33:54;0.60;;;0.60;;
27804;SDS011;15183;51.350;11.102;2023-05-10T14:36:20;3.13;;;0.80;;
27804;SDS011;15183;51.350;11.102;2023-05-10T14:38:47;0.45;;;0.45;;
27804;SDS011;15183;51.350;11.102;2023-05-10T14:41:13;2.60;;;1.17;;
27804;SDS011;15183;51.350;11.102;2023-05-10T14:43:41;1.67;;;1.15;;
27804;SDS011;15183;51.350;11.102;2023-05-10T14:46:08;1.38;;;1.27;;
27804;SDS011;15183;51.350;11.102;2023-05-10T14:48:34;1.05;;;1.00;;
27804;SDS011;15183;51.350;11.102;2023-05-10T14:51:01;0.60;;;0.55;;
27804;SDS011;15183;51.350;11.102;2023-05-10T14:53:28;2.35;;;1.60;;
27804;SDS011;15183;51.350;11.102;2023-05-10T14:55:54;1.20;;;0.90;;
27804;SDS011;15183;51.350;11.102;2023-05-10T14:58:20;1.20;;;0.90;;
27804;SDS011;15183;51.350;11.102;2023-05-10T15:00:47;0.70;;;0.70;;